Time;durP1;ratioP1;P1;durP2;ratioP2;P2;SDS_P1;SDS_P2;PMS_P1;PMS_P2;Temp;Humidity;BMP_temperature;BMP_pressure;BME280_temperature;BME280_humidity;BME280_pressure;Samples;Min_cycle;Max_cycle;Signal;HPM_P1;HPM_P2
2022/01/27 00:04:19;;;;;;;31.67;15.50;;;4.00;99.90;;;;;;5110958;22;20648;-78
2022/01/27 00:06:45;;;;;;;29.17;17.17;;;4.00;99.90;;;;;;5095273;28;20440;-77
2022/01/27 00:11:42;;;;;;;32.60;17.50;;;4.00;99.90;;;;;;5095562;28;20222;-79
2022/01/27 00:14:10;;;;;;;28.83;16.07;;;4.00;99.90;;;;;;5095472;28;20433;-80
2022/01/27 00:16:41;;;;;;;32.20;17.27;;;4.00;99.90;;;;;;5095070;28;20430;-79
2022/01/27 00:19:08;;;;;;;29.43;15.90;;;4.00;99.90;;;;;;5077501;28;20613;-79
2022/01/27 00:21:33;;;;;;;31.20;15.67;;;4.00;99.90;;;;;;5095360;28;20412;-77
2022/01/27 00:23:59;;;;;;;30.50;15.30;;;4.00;99.90;;;;;;5095445;28;20511;-80
2022/01/27 00:26:25;;;;;;;27.83;16.07;;;4.10;99.90;;;;;;5076958;28;20274;-77
2022/01/27 00:28:51;;;;;;;30.87;15.50;;;3.90;99.90;;;;;;5095154;28;20171;-79
2022/01/27 00:31:18;;;;;;;31.17;17.77;;;3.90;99.90;;;;;;5076703;28;20424;-77
2022/01/27 00:33:46;;;;;;;30.87;15.20;;;3.90;99.90;;;;;;5094915;28;20672;-79
2022/01/27 00:36:12;;;;;;;33.17;18.13;;;3.90;99.90;;;;;;5094766;28;20420;-79
2022/01/27 00:38:39;;;;;;;34.90;17.87;;;3.80;99.90;;;;;;5094639;28;20440;-80
2022/01/27 00:41:05;;;;;;;32.30;15.10;;;3.80;99.90;;;;;;5076466;28;20459;-79
2022/01/27 00:43:31;;;;;;;31.67;16.77;;;3.70;99.90;;;;;;5076320;28;20850;-79
2022/01/27 00:45:57;;;;;;;29.00;15.20;;;3.70;99.90;;;;;;5094466;28;20416;-79
2022/01/27 00:48:23;;;;;;;34.47;16.93;;;3.60;99.90;;;;;;5076251;28;20318;-80
2022/01/27 00:50:54;;;;;;;34.30;17.30;;;3.50;99.90;;;;;;5094247;28;20408;-79
2022/01/27 00:56:18;;;;;;;38.17;17.13;;;3.60;99.90;;;;;;5052453;28;20412;-79
2022/01/27 00:59:03;;;;;;;32.57;16.27;;;3.50;99.90;;;;;;5076280;28;20828;-77
2022/01/27 01:01:35;;;;;;;32.90;17.03;;;3.60;99.90;;;;;;5076103;28;20516;-79
2022/01/27 01:04:04;;;;;;;34.60;16.60;;;3.50;99.90;;;;;;5094139;28;20462;-77
2022/01/27 01:06:38;;;;;;;40.03;17.47;;;3.50;99.90;;;;;;5093875;28;20419;-77
2022/01/27 01:12:01;;;;;;;33.90;15.50;;;3.50;99.90;;;;;;5093847;28;20404;-79
2022/01/27 01:30:08;;;;;;;31.50;14.00;;;3.60;99.90;;;;;;5093622;28;20407;-77
2022/01/27 01:35:00;;;;;;;37.17;15.77;;;3.60;99.90;;;;;;5093662;28;20437;-77
2022/01/27 01:37:25;;;;;;;36.33;16.63;;;3.50;99.90;;;;;;5093157;28;20171;-79
2022/01/27 01:39:51;;;;;;;36.77;15.20;;;3.50;99.90;;;;;;5093274;28;20904;-77
2022/01/27 01:42:17;;;;;;;32.87;15.87;;;3.50;99.90;;;;;;5093412;28;20187;-77
2022/01/27 01:44:43;;;;;;;35.43;15.00;;;3.50;99.90;;;;;;5094521;28;20202;-80
2022/01/27 01:47:09;;;;;;;32.77;17.47;;;3.60;99.90;;;;;;5093744;28;20167;-77
2022/01/27 01:49:35;;;;;;;29.27;14.37;;;3.60;99.90;;;;;;5094674;28;20411;-79
2022/01/27 01:52:07;;;;;;;31.00;14.53;;;3.50;99.90;;;;;;5094325;28;20691;-77
2022/01/27 01:54:33;;;;;;;31.17;15.23;;;3.60;99.90;;;;;;5094031;28;20459;-79
2022/01/27 01:56:59;;;;;;;29.00;13.43;;;3.60;99.90;;;;;;5075357;28;20507;-77
2022/01/27 01:59:25;;;;;;;33.77;16.00;;;3.70;99.90;;;;;;5076418;28;20421;-80
2022/01/27 02:01:51;;;;;;;35.17;15.80;;;3.60;99.90;;;;;;5075579;28;20490;-79
2022/01/27 02:04:17;;;;;;;36.60;14.33;;;3.70;99.90;;;;;;5075127;28;20248;-80
2022/01/27 02:06:52;;;;;;;34.60;16.07;;;3.70;99.90;;;;;;5075410;28;20788;-80
2022/01/27 02:20:05;;;;;;;27.40;14.23;;;3.70;99.90;;;;;;5094742;28;20414;-80
2022/01/27 02:22:30;;;;;;;32.20;14.93;;;3.70;99.90;;;;;;5075178;28;20448;-79
2022/01/27 02:24:56;;;;;;;29.50;15.43;;;3.70;99.90;;;;;;5075590;28;21005;-79
2022/01/27 02:27:22;;;;;;;32.80;14.30;;;3.70;99.90;;;;;;5074761;28;20174;-79
2022/01/27 02:29:48;;;;;;;34.03;15.63;;;3.80;99.90;;;;;;5093364;28;20177;-79
2022/01/27 02:32:15;;;;;;;27.70;14.90;;;3.70;99.90;;;;;;5093108;28;20445;-79
2022/01/27 02:34:42;;;;;;;34.90;15.40;;;3.60;99.90;;;;;;5092909;28;20436;-79
2022/01/27 02:37:08;;;;;;;33.13;16.10;;;3.70;99.90;;;;;;5074609;28;20424;-79
2022/01/27 02:39:34;;;;;;;32.17;15.70;;;3.70;99.90;;;;;;5074569;28;20413;-80
2022/01/27 02:42:28;;;;;;;32.03;15.20;;;3.70;99.90;;;;;;5092553;28;20462;-79
2022/01/27 02:44:54;;;;;;;30.67;14.50;;;3.70;99.90;;;;;;5074320;28;20248;-79
2022/01/27 02:47:22;;;;;;;29.43;16.20;;;3.70;99.90;;;;;;5092554;28;20436;-79
2022/01/27 02:49:48;;;;;;;35.97;15.00;;;3.70;99.90;;;;;;5093348;28;20167;-79
2022/01/27 02:52:15;;;;;;;29.03;14.60;;;3.70;99.90;;;;;;5092494;28;20420;-79
2022/01/27 02:54:41;;;;;;;33.83;16.07;;;3.70;99.90;;;;;;5092691;28;20491;-79
2022/01/27 02:57:07;;;;;;;31.07;14.00;;;3.70;99.90;;;;;;5074071;28;20448;-79
2022/01/27 02:59:32;;;;;;;35.30;14.50;;;3.70;99.90;;;;;;5074632;28;20189;-79
2022/01/27 03:01:59;;;;;;;26.00;14.50;;;3.70;99.90;;;;;;5092582;28;20918;-80
2022/01/27 03:04:25;;;;;;;30.97;13.00;;;3.70;99.90;;;;;;5092000;28;20205;-79
2022/01/27 03:06:51;;;;;;;31.97;14.33;;;3.70;99.90;;;;;;5073987;28;20409;-79
2022/01/27 03:09:17;;;;;;;26.23;13.70;;;3.70;99.90;;;;;;5092419;28;20446;-80
2022/01/27 03:11:50;;;;;;;27.03;13.63;;;3.70;99.90;;;;;;5074407;28;20181;-80
2022/01/27 03:14:19;;;;;;;28.93;13.60;;;3.80;99.90;;;;;;5074488;28;20444;-80
2022/01/27 03:16:45;;;;;;;32.37;12.77;;;3.80;99.90;;;;;;5093867;28;20465;-79
2022/01/27 03:19:11;;;;;;;28.43;14.47;;;3.90;99.90;;;;;;5078735;28;20419;-80
2022/01/27 03:21:37;;;;;;;30.70;12.83;;;3.90;99.90;;;;;;5078546;28;20776;-80
2022/01/27 03:24:03;;;;;;;31.13;13.43;;;3.80;99.90;;;;;;5096398;28;20288;-79
2022/01/27 03:26:29;;;;;;;35.17;15.00;;;3.80;99.90;;;;;;5096493;28;20499;-79
2022/01/27 03:28:55;;;;;;;23.40;11.37;;;3.80;99.90;;;;;;5078030;28;20451;-79
2022/01/27 03:31:21;;;;;;;28.67;12.53;;;3.80;99.90;;;;;;5096794;28;20177;-81
2022/01/27 03:33:47;;;;;;;29.67;14.77;;;3.80;99.90;;;;;;5102010;28;20219;-81
2022/01/27 03:36:13;;;;;;;29.63;14.20;;;3.80;99.90;;;;;;5085162;28;20440;-81
2022/01/27 03:38:39;;;;;;;27.97;13.30;;;3.80;99.90;;;;;;5103067;28;20433;-81
2022/01/27 03:41:07;;;;;;;30.33;12.87;;;3.80;99.90;;;;;;5102756;28;20491;-81
2022/01/27 03:43:33;;;;;;;28.00;12.87;;;3.80;99.90;;;;;;5102357;28;20970;-80
2022/01/27 03:45:59;;;;;;;36.50;15.83;;;3.90;99.90;;;;;;5084595;28;20519;-81
2022/01/27 03:48:25;;;;;;;27.07;14.03;;;3.90;99.90;;;;;;5101754;28;20423;-81
2022/01/27 03:50:50;;;;;;;37.43;13.00;;;3.90;99.90;;;;;;5102158;28;20813;-80
2022/01/27 03:53:16;;;;;;;28.37;13.43;;;3.90;99.90;;;;;;5083174;28;20213;-80
2022/01/27 03:55:42;;;;;;;25.60;12.90;;;3.90;99.90;;;;;;5083648;28;20253;-80
2022/01/27 03:58:08;;;;;;;27.73;12.70;;;4.00;99.90;;;;;;5082534;28;20183;-81
2022/01/27 04:00:34;;;;;;;29.43;14.30;;;4.10;99.90;;;;;;5101436;28;20415;-81
2022/01/27 04:03:05;;;;;;;25.13;11.10;;;4.00;99.90;;;;;;5101530;28;20198;-81
2022/01/27 04:05:36;;;;;;;25.33;12.13;;;4.00;99.90;;;;;;5101046;28;20412;-81
2022/01/27 04:08:04;;;;;;;28.07;13.40;;;4.10;99.90;;;;;;5100455;28;20449;-81
2022/01/27 04:10:29;;;;;;;29.70;14.30;;;4.20;99.90;;;;;;5100802;28;20431;-80
2022/01/27 04:12:55;;;;;;;20.87;11.70;;;4.20;99.90;;;;;;5082585;28;20481;-80
2022/01/27 04:15:21;;;;;;;27.03;12.23;;;4.20;99.90;;;;;;5100732;28;20179;-80
2022/01/27 04:17:47;;;;;;;28.90;14.73;;;4.20;99.90;;;;;;5100563;28;20249;-80
2022/01/27 04:20:13;;;;;;;25.17;12.47;;;4.30;99.90;;;;;;5082207;28;20183;-81
2022/01/27 04:22:38;;;;;;;27.20;12.00;;;4.40;99.90;;;;;;5082295;28;20175;-81
2022/01/27 04:25:05;;;;;;;29.00;12.30;;;4.40;99.90;;;;;;5099807;28;20516;-80
2022/01/27 04:27:33;;;;;;;24.87;11.67;;;4.40;99.90;;;;;;5099671;28;20171;-81
2022/01/27 04:30:00;;;;;;;23.40;11.30;;;4.40;99.90;;;;;;5099886;28;20410;-81
2022/01/27 04:32:32;;;;;;;27.40;12.70;;;4.40;99.90;;;;;;5099962;28;20408;-80
2022/01/27 04:35:02;;;;;;;24.10;11.87;;;4.40;99.90;;;;;;5099613;28;20416;-81
2022/01/27 04:37:31;;;;;;;23.53;10.90;;;4.40;99.90;;;;;;5080998;28;20438;-80
2022/01/27 04:40:06;;;;;;;22.97;11.10;;;4.40;99.90;;;;;;5099191;28;20768;-80
2022/01/27 04:42:49;;;;;;;22.13;11.23;;;4.40;99.90;;;;;;5099117;28;20424;-79
2022/01/27 04:45:17;;;;;;;22.67;12.40;;;4.40;99.90;;;;;;5080750;28;20471;-81
2022/01/27 04:47:47;;;;;;;20.40;12.03;;;4.40;99.90;;;;;;5080493;28;20514;-81
2022/01/27 04:50:12;;;;;;;23.27;11.40;;;4.40;99.90;;;;;;5098230;28;20414;-80
2022/01/27 04:52:43;;;;;;;19.93;9.70;;;4.40;99.90;;;;;;5098838;28;20412;-81
2022/01/27 04:55:11;;;;;;;25.20;13.90;;;4.40;99.90;;;;;;5098863;28;20198;-81
2022/01/27 04:57:40;;;;;;;21.00;11.90;;;4.40;99.90;;;;;;5080056;28;20519;-81
2022/01/27 05:00:07;;;;;;;24.27;11.43;;;4.40;99.90;;;;;;5098630;28;20410;-81
2022/01/27 05:02:44;;;;;;;22.90;11.93;;;4.50;99.90;;;;;;5079693;28;20431;-79
2022/01/27 05:05:10;;;;;;;30.67;13.57;;;4.50;99.90;;;;;;5079630;28;20472;-80
2022/01/27 05:07:36;;;;;;;29.63;13.90;;;4.50;99.90;;;;;;5083779;28;20412;-80
2022/01/27 05:10:10;;;;;;;21.43;11.67;;;4.50;99.90;;;;;;5098623;28;20408;-80
2022/01/27 05:12:44;;;;;;;31.47;12.77;;;4.50;99.90;;;;;;5098832;28;20182;-81
2022/01/27 05:15:11;;;;;;;23.20;11.33;;;4.60;99.90;;;;;;5080052;28;20456;-81
2022/01/27 05:17:36;;;;;;;27.30;11.43;;;4.60;99.90;;;;;;5079113;28;20456;-80
2022/01/27 05:20:02;;;;;;;24.80;12.10;;;4.60;99.90;;;;;;5079719;28;20824;-81
2022/01/27 05:22:28;;;;;;;22.90;11.47;;;4.50;99.90;;;;;;5098570;28;20166;-81
2022/01/27 05:24:53;;;;;;;22.37;11.10;;;4.60;99.90;;;;;;5078777;28;20598;-80
2022/01/27 05:27:19;;;;;;;26.20;12.30;;;4.50;99.90;;;;;;5097799;28;20228;-80
2022/01/27 05:29:44;;;;;;;25.90;13.40;;;4.50;99.90;;;;;;5077899;28;20181;-80
2022/01/27 05:32:10;;;;;;;27.83;12.00;;;4.50;99.90;;;;;;5077903;28;20465;-79
2022/01/27 05:34:36;;;;;;;21.43;11.10;;;4.50;99.90;;;;;;5077525;28;20573;-80
2022/01/27 05:37:01;;;;;;;28.00;13.00;;;4.50;99.90;;;;;;5095439;28;20214;-80
2022/01/27 05:39:27;;;;;;;21.67;12.03;;;4.50;99.90;;;;;;5094760;28;20184;-80
2022/01/27 05:41:53;;;;;;;23.40;11.67;;;4.60;99.90;;;;;;5095623;28;20186;-80
2022/01/27 05:44:18;;;;;;;21.70;10.73;;;4.60;99.90;;;;;;5095069;28;20202;-80
2022/01/27 05:46:44;;;;;;;28.50;13.07;;;4.60;99.90;;;;;;5076537;28;20180;-80
2022/01/27 05:49:09;;;;;;;23.87;11.27;;;4.70;99.90;;;;;;5095231;28;20289;-80
2022/01/27 05:51:35;;;;;;;24.87;13.00;;;4.70;99.90;;;;;;5076696;28;20183;-80
2022/01/27 05:54:00;;;;;;;22.00;11.83;;;4.80;99.90;;;;;;5094915;28;20280;-80
2022/01/27 05:56:26;;;;;;;24.30;12.00;;;4.80;99.90;;;;;;5094426;28;20190;-80
2022/01/27 05:58:51;;;;;;;22.70;12.10;;;4.90;99.90;;;;;;5094687;28;20203;-80
2022/01/27 06:01:17;;;;;;;21.00;11.30;;;4.90;99.90;;;;;;5094299;28;20181;-80
2022/01/27 06:06:11;;;;;;;30.57;12.53;;;5.00;99.90;;;;;;5057997;28;20858;-80
2022/01/27 06:08:37;;;;;;;19.97;11.07;;;5.00;99.90;;;;;;5059394;28;20411;-80
2022/01/27 06:11:03;;;;;;;23.77;11.07;;;5.10;99.90;;;;;;5058341;28;20210;-80
2022/01/27 06:13:28;;;;;;;24.17;11.97;;;5.20;99.90;;;;;;5058560;28;20283;-79
2022/01/27 06:15:55;;;;;;;21.97;11.77;;;5.20;99.90;;;;;;5058970;28;20240;-79
2022/01/27 06:18:20;;;;;;;17.10;10.43;;;5.30;99.90;;;;;;5058088;28;20420;-80
2022/01/27 06:20:46;;;;;;;23.40;11.60;;;5.40;99.90;;;;;;5058542;28;20473;-79
2022/01/27 06:23:15;;;;;;;26.73;11.40;;;5.50;99.90;;;;;;5058187;28;20437;-79
2022/01/27 06:25:42;;;;;;;22.40;11.57;;;5.50;99.90;;;;;;5057769;28;20469;-80
2022/01/27 06:28:08;;;;;;;22.33;12.47;;;5.50;99.90;;;;;;5056903;28;20949;-80
2022/01/27 06:30:36;;;;;;;21.83;12.07;;;5.60;99.90;;;;;;5058881;28;20416;-80
2022/01/27 06:33:06;;;;;;;20.53;10.37;;;5.60;99.90;;;;;;5057972;28;20477;-79
2022/01/27 06:35:32;;;;;;;23.00;11.90;;;5.70;99.90;;;;;;5057813;28;20479;-80
2022/01/27 06:37:59;;;;;;;18.67;11.27;;;5.70;99.90;;;;;;5057644;28;20422;-78
2022/01/27 06:40:25;;;;;;;20.30;11.10;;;5.70;99.90;;;;;;5057251;28;20491;-80
2022/01/27 06:42:51;;;;;;;18.47;10.13;;;5.80;99.90;;;;;;5057248;28;20826;-79
2022/01/27 06:45:16;;;;;;;21.00;11.90;;;5.90;99.90;;;;;;5057208;28;20474;-80
2022/01/27 06:47:42;;;;;;;18.93;10.10;;;5.90;99.90;;;;;;5057599;28;20527;-79
2022/01/27 06:50:08;;;;;;;20.93;13.10;;;6.00;99.90;;;;;;5056679;28;20186;-78
2022/01/27 06:52:34;;;;;;;15.80;9.50;;;6.00;99.90;;;;;;5056299;28;20244;-80
2022/01/27 06:55:02;;;;;;;24.00;10.60;;;6.00;99.90;;;;;;5056605;28;20935;-77
2022/01/27 06:57:28;;;;;;;18.77;10.03;;;6.10;99.90;;;;;;5055751;28;20493;-79
2022/01/27 06:59:54;;;;;;;25.90;12.20;;;6.10;99.90;;;;;;5056548;28;20505;-79
2022/01/27 07:02:20;;;;;;;19.47;10.67;;;6.00;99.90;;;;;;5056594;28;20450;-80
2022/01/27 07:04:46;;;;;;;21.10;10.47;;;6.10;99.90;;;;;;5055839;28;20299;-78
2022/01/27 07:07:12;;;;;;;19.23;10.17;;;6.10;99.90;;;;;;5056023;28;20206;-78
2022/01/27 07:09:39;;;;;;;20.53;10.90;;;6.00;99.90;;;;;;5056414;28;20271;-78
2022/01/27 07:12:06;;;;;;;22.87;10.73;;;6.10;99.90;;;;;;5056399;28;20436;-79
2022/01/27 07:14:33;;;;;;;20.33;10.03;;;6.00;99.90;;;;;;5055997;28;20497;-79
2022/01/27 07:16:59;;;;;;;22.13;10.53;;;6.00;99.90;;;;;;5056114;28;20420;-79
2022/01/27 07:19:25;;;;;;;26.53;11.63;;;6.10;99.90;;;;;;5056195;28;20504;-78
2022/01/27 07:21:51;;;;;;;17.80;9.50;;;6.00;99.90;;;;;;5055406;28;20480;-79
2022/01/27 07:24:16;;;;;;;22.80;12.03;;;6.10;99.90;;;;;;5055711;28;20602;-78
2022/01/27 07:26:42;;;;;;;20.60;10.90;;;6.00;99.90;;;;;;5055811;28;20186;-78
2022/01/27 07:29:08;;;;;;;22.27;10.37;;;6.00;99.90;;;;;;5056261;28;20183;-78
2022/01/27 07:31:34;;;;;;;18.87;10.60;;;6.00;99.90;;;;;;5055035;28;20178;-80
2022/01/27 07:33:59;;;;;;;19.47;10.17;;;6.00;99.90;;;;;;5055772;28;20264;-79
2022/01/27 07:36:25;;;;;;;21.20;10.60;;;6.10;99.90;;;;;;5055814;28;20187;-77
2022/01/27 07:38:51;;;;;;;22.30;11.30;;;6.10;99.90;;;;;;5055281;28;20650;-78
2022/01/27 07:41:18;;;;;;;22.07;11.43;;;6.20;99.90;;;;;;5056109;28;20420;-78
2022/01/27 07:43:44;;;;;;;22.60;12.00;;;6.20;99.90;;;;;;5056089;28;20256;-78
2022/01/27 07:46:13;;;;;;;20.30;10.90;;;6.20;99.90;;;;;;5056858;28;20420;-78
2022/01/27 07:48:40;;;;;;;18.57;10.27;;;6.20;99.90;;;;;;5055271;28;20426;-78
2022/01/27 07:51:08;;;;;;;21.97;10.57;;;6.30;99.90;;;;;;5055708;28;20475;-80
2022/01/27 07:53:34;;;;;;;24.87;12.40;;;6.40;99.90;;;;;;5055581;28;20443;-79
2022/01/27 07:56:02;;;;;;;22.40;11.97;;;6.40;99.90;;;;;;5056089;28;20420;-78
2022/01/27 07:58:29;;;;;;;24.80;13.30;;;6.40;99.90;;;;;;5055739;28;20422;-78
2022/01/27 08:00:55;;;;;;;20.73;11.30;;;6.30;99.90;;;;;;5055353;28;20783;-78
2022/01/27 08:03:20;;;;;;;23.90;12.60;;;6.40;99.90;;;;;;5058093;28;20477;-78
2022/01/27 08:05:46;;;;;;;25.57;13.00;;;6.40;99.90;;;;;;5059126;28;20438;-78
2022/01/27 08:08:12;;;;;;;22.80;11.73;;;6.50;99.90;;;;;;5059123;28;20183;-78
2022/01/27 08:10:38;;;;;;;18.03;11.27;;;6.60;99.90;;;;;;5058854;28;20913;-77
2022/01/27 08:13:09;;;;;;;24.40;11.40;;;6.60;99.90;;;;;;5059262;28;20195;-78
2022/01/27 08:15:36;;;;;;;17.77;10.07;;;6.60;99.90;;;;;;5058759;28;20433;-79
2022/01/27 08:18:02;;;;;;;28.97;11.13;;;6.70;99.90;;;;;;5058620;28;20418;-78
2022/01/27 08:20:28;;;;;;;20.53;11.20;;;6.70;99.90;;;;;;5060071;28;20430;-80
2022/01/27 08:22:55;;;;;;;20.43;11.00;;;6.70;99.90;;;;;;5058406;28;20471;-78
2022/01/27 08:25:24;;;;;;;22.37;11.73;;;6.70;99.90;;;;;;5059542;28;20215;-78
2022/01/27 08:27:54;;;;;;;21.33;12.80;;;6.70;99.90;;;;;;5058377;28;20533;-78
2022/01/27 08:30:23;;;;;;;21.77;11.33;;;6.70;99.90;;;;;;5059041;28;20418;-78
2022/01/27 08:33:04;;;;;;;19.57;10.50;;;6.80;99.90;;;;;;5058851;28;20438;-78
2022/01/27 08:35:30;;;;;;;26.50;10.93;;;6.70;99.90;;;;;;5058326;28;20988;-78
2022/01/27 08:37:56;;;;;;;23.70;13.07;;;6.70;99.90;;;;;;5058404;28;20428;-78
2022/01/27 08:40:22;;;;;;;20.50;12.73;;;6.70;99.90;;;;;;5060993;28;20482;-79
2022/01/27 08:42:49;;;;;;;25.60;12.50;;;6.60;99.90;;;;;;5061166;28;20202;-80
2022/01/27 08:45:18;;;;;;;22.40;11.83;;;6.60;99.90;;;;;;5060632;28;20892;-78
2022/01/27 08:47:45;;;;;;;22.73;11.13;;;6.60;99.90;;;;;;5059763;28;20489;-78
2022/01/27 08:50:13;;;;;;;20.20;12.30;;;6.60;99.90;;;;;;5059670;28;20422;-78
2022/01/27 08:52:39;;;;;;;24.37;13.53;;;6.60;99.90;;;;;;5059630;28;20441;-78
2022/01/27 08:55:07;;;;;;;22.80;12.87;;;6.60;99.90;;;;;;5060067;28;20447;-79
2022/01/27 08:57:33;;;;;;;21.33;12.17;;;6.60;99.90;;;;;;5058231;28;20437;-79
2022/01/27 09:00:00;;;;;;;29.10;13.73;;;6.60;99.90;;;;;;5061691;28;20512;-78
2022/01/27 09:02:29;;;;;;;22.60;13.83;;;6.50;99.90;;;;;;5061463;28;20867;-79
2022/01/27 09:04:55;;;;;;;23.83;11.40;;;6.40;99.90;;;;;;5059524;28;20835;-80
2022/01/27 09:07:21;;;;;;;23.07;12.90;;;6.50;99.90;;;;;;5059538;28;20480;-79
2022/01/27 09:09:47;;;;;;;27.97;14.40;;;6.50;99.90;;;;;;5060223;28;20188;-80
2022/01/27 09:12:14;;;;;;;24.30;13.23;;;6.50;99.90;;;;;;5059156;28;20566;-79
2022/01/27 09:14:42;;;;;;;24.40;13.13;;;6.50;99.90;;;;;;5061472;28;20452;-80
2022/01/27 09:17:10;;;;;;;25.17;12.10;;;6.40;99.90;;;;;;5059752;28;20418;-80
2022/01/27 09:19:38;;;;;;;24.43;12.60;;;6.40;99.90;;;;;;5060541;28;20583;-79
2022/01/27 09:22:11;;;;;;;17.73;11.63;;;6.40;99.90;;;;;;5060042;28;20429;-79
2022/01/27 09:24:51;;;;;;;28.10;13.47;;;6.20;99.90;;;;;;5060820;28;20454;-78
2022/01/27 09:27:18;;;;;;;25.13;13.10;;;6.10;99.90;;;;;;5060330;28;20418;-80
2022/01/27 09:29:44;;;;;;;24.53;12.87;;;6.10;99.90;;;;;;5061996;28;20425;-78
2022/01/27 09:32:11;;;;;;;27.97;13.90;;;6.00;99.90;;;;;;5060459;28;20433;-79
2022/01/27 09:34:37;;;;;;;28.07;13.27;;;6.00;99.90;;;;;;5061103;28;20425;-80
2022/01/27 09:37:03;;;;;;;29.67;14.70;;;6.00;99.90;;;;;;5061597;28;20426;-78
2022/01/27 09:39:34;;;;;;;24.63;13.00;;;5.90;99.90;;;;;;5059589;28;20422;-80
2022/01/27 09:42:01;;;;;;;23.63;12.73;;;6.00;99.90;;;;;;5060508;28;20417;-80
2022/01/27 09:44:29;;;;;;;22.87;14.57;;;6.00;99.90;;;;;;5060557;28;20556;-79
2022/01/27 09:47:04;;;;;;;22.40;11.87;;;6.00;99.90;;;;;;5060343;28;20417;-78
2022/01/27 09:49:40;;;;;;;19.60;12.50;;;6.00;99.90;;;;;;5061702;28;21008;-79
2022/01/27 09:52:06;;;;;;;20.60;12.80;;;5.90;99.90;;;;;;5061130;28;20446;-79
2022/01/27 09:54:33;;;;;;;22.17;11.50;;;5.90;99.90;;;;;;5062162;28;20453;-77
2022/01/27 09:57:00;;;;;;;23.07;13.40;;;5.90;99.90;;;;;;5061649;28;20198;-80
2022/01/27 09:59:26;;;;;;;21.03;11.60;;;5.90;99.90;;;;;;5060392;28;20466;-79
2022/01/27 10:01:56;;;;;;;22.97;11.80;;;5.90;99.90;;;;;;5060762;28;20448;-78
2022/01/27 10:04:24;;;;;;;21.87;12.50;;;6.00;99.90;;;;;;5061358;28;20476;-79
2022/01/27 10:06:57;;;;;;;21.93;11.97;;;6.00;99.90;;;;;;5059985;28;20483;-79
2022/01/27 10:09:27;;;;;;;23.30;13.90;;;6.00;99.90;;;;;;5058244;28;20805;-78
2022/01/27 10:11:53;;;;;;;20.20;12.93;;;6.00;99.90;;;;;;5058747;28;20417;-79
2022/01/27 10:14:24;;;;;;;28.03;13.70;;;6.10;99.90;;;;;;5058298;28;20453;-79
2022/01/27 10:16:56;;;;;;;20.60;11.60;;;6.10;99.90;;;;;;5057571;28;20422;-79
2022/01/27 10:19:25;;;;;;;22.00;11.23;;;6.10;99.90;;;;;;5057734;28;20432;-79
2022/01/27 10:21:59;;;;;;;26.70;13.20;;;6.20;99.90;;;;;;5055529;28;20540;-80
2022/01/27 10:24:28;;;;;;;24.77;12.10;;;6.20;99.90;;;;;;5053523;28;20509;-80
2022/01/27 10:32:47;;;;;;;26.47;13.70;;;6.30;99.90;;;;;;5055548;28;20494;-80
2022/01/27 10:35:15;;;;;;;24.47;13.03;;;6.20;99.90;;;;;;5053808;28;20433;-81
2022/01/27 10:38:08;;;;;;;18.83;11.03;;;6.20;99.90;;;;;;5053303;28;20426;-80
2022/01/27 10:40:35;;;;;;;19.70;10.07;;;6.20;99.90;;;;;;5053531;28;20437;-80
2022/01/27 10:43:13;;;;;;;25.23;12.13;;;6.20;99.90;;;;;;5054528;28;20474;-79
2022/01/27 10:46:25;;;;;;;20.63;10.70;;;6.20;99.90;;;;;;5054798;28;20840;-80
2022/01/27 10:51:30;;;;;;;16.50;11.20;;;6.40;99.90;;;;;;5056467;28;20425;-81
2022/01/27 10:54:18;;;;;;;19.60;10.30;;;6.40;99.90;;;;;;5054421;28;20948;-81
2022/01/27 10:56:46;;;;;;;20.23;10.13;;;6.50;99.90;;;;;;5054274;28;20922;-80
2022/01/27 10:59:19;;;;;;;17.17;10.57;;;6.50;99.90;;;;;;5053957;28;20560;-80
2022/01/27 11:01:50;;;;;;;15.77;10.17;;;6.50;99.90;;;;;;5054198;28;20514;-80
2022/01/27 11:04:18;;;;;;;23.17;11.10;;;6.40;99.90;;;;;;5054359;28;20544;-81
2022/01/27 11:07:01;;;;;;;20.07;11.00;;;6.40;99.90;;;;;;5053959;28;20433;-80
2022/01/27 11:09:33;;;;;;;20.17;10.00;;;6.50;99.90;;;;;;5053921;28;20431;-81
2022/01/27 11:12:00;;;;;;;18.33;10.83;;;6.50;99.90;;;;;;5054155;28;20418;-80
2022/01/27 11:14:26;;;;;;;19.37;11.00;;;6.50;99.90;;;;;;5054106;28;20429;-81
2022/01/27 11:16:57;;;;;;;16.73;10.40;;;6.40;99.90;;;;;;5054060;28;20492;-79
2022/01/27 11:22:22;;;;;;;19.73;10.33;;;6.70;99.90;;;;;;5055330;28;20424;-80
2022/01/27 11:27:34;;;;;;;13.60;8.90;;;6.80;99.90;;;;;;5054456;28;20822;-79
2022/01/27 11:30:09;;;;;;;18.40;11.17;;;6.80;99.90;;;;;;5053306;28;20425;-79
2022/01/27 11:33:01;;;;;;;18.13;10.07;;;6.90;99.90;;;;;;5053705;28;20444;-79
2022/01/27 11:35:27;;;;;;;15.23;9.90;;;6.90;99.90;;;;;;5052976;28;20440;-80
2022/01/27 11:38:00;;;;;;;15.33;8.43;;;6.90;99.90;;;;;;5055626;28;20434;-79
2022/01/27 11:40:44;;;;;;;23.03;10.23;;;6.80;99.90;;;;;;5057965;28;20192;-80
2022/01/27 11:43:18;;;;;;;16.57;8.70;;;6.80;99.90;;;;;;5057521;28;20814;-80
2022/01/27 11:45:45;;;;;;;15.83;10.00;;;6.80;99.90;;;;;;5057599;28;20461;-80
2022/01/27 11:48:14;;;;;;;15.50;9.50;;;6.90;99.90;;;;;;5057402;28;20414;-80
2022/01/27 11:53:37;;;;;;;14.43;9.10;;;6.90;99.90;;;;;;5058642;28;20476;-81
2022/01/27 11:56:26;;;;;;;15.37;9.87;;;6.90;99.90;;;;;;5057622;28;20453;-80
2022/01/27 11:58:53;;;;;;;17.27;10.90;;;6.90;99.90;;;;;;5057105;28;20418;-81
2022/01/27 12:01:28;;;;;;;19.17;10.37;;;6.80;99.90;;;;;;5057440;28;20414;-80
2022/01/27 12:04:06;;;;;;;13.10;8.87;;;6.80;99.90;;;;;;5056965;28;20503;-80
2022/01/27 12:06:39;;;;;;;17.60;9.40;;;6.90;99.90;;;;;;5070389;22;20496;-79
2022/01/27 12:09:17;;;;;;;15.90;10.10;;;6.90;99.90;;;;;;5057034;28;20424;-78
2022/01/27 12:11:50;;;;;;;14.00;9.90;;;6.90;99.90;;;;;;5056833;28;20514;-78
2022/01/27 12:14:23;;;;;;;16.23;11.00;;;6.90;99.90;;;;;;5074888;28;20413;-78
2022/01/27 12:17:16;;;;;;;14.40;8.97;;;6.90;99.90;;;;;;5036736;28;20813;-78
2022/01/27 12:19:59;;;;;;;14.20;8.83;;;7.00;99.90;;;;;;5050662;28;20449;-78
2022/01/27 12:22:49;;;;;;;14.10;8.60;;;6.90;99.90;;;;;;5054671;28;20455;-77
2022/01/27 12:25:16;;;;;;;19.07;9.37;;;6.90;99.90;;;;;;5039184;28;20477;-77
2022/01/27 12:27:52;;;;;;;11.60;8.10;;;7.00;99.90;;;;;;5054459;28;20780;-77
2022/01/27 12:30:18;;;;;;;14.73;9.67;;;6.90;99.90;;;;;;5054600;28;20411;-77
2022/01/27 12:32:45;;;;;;;13.33;8.30;;;6.90;99.90;;;;;;5054371;28;20500;-78
2022/01/27 12:35:16;;;;;;;12.10;7.90;;;7.00;99.90;;;;;;5054131;28;20888;-78
2022/01/27 12:37:45;;;;;;;12.50;8.30;;;7.00;99.90;;;;;;5036422;28;20431;-78
2022/01/27 12:40:19;;;;;;;13.23;7.70;;;7.00;99.90;;;;;;5054371;28;20415;-78
2022/01/27 12:42:56;;;;;;;12.53;8.07;;;7.00;99.90;;;;;;5054384;28;20409;-78
2022/01/27 12:45:27;;;;;;;14.20;8.97;;;6.90;99.90;;;;;;5054028;28;20466;-78
2022/01/27 12:47:53;;;;;;;12.20;7.77;;;6.90;99.90;;;;;;5053728;28;20417;-78
2022/01/27 12:50:22;;;;;;;12.47;7.53;;;6.90;99.90;;;;;;5053079;28;20428;-78
2022/01/27 12:52:52;;;;;;;13.10;7.30;;;6.90;99.90;;;;;;5054181;28;20278;-78
2022/01/27 12:55:20;;;;;;;14.67;8.00;;;6.90;99.90;;;;;;5053897;28;20443;-78
2022/01/27 12:58:18;;;;;;;10.83;7.50;;;7.00;99.90;;;;;;5053820;28;20421;-78
2022/01/27 13:00:51;;;;;;;11.27;7.90;;;7.00;99.90;;;;;;4999183;28;20426;-77
2022/01/27 13:03:18;;;;;;;8.70;6.53;;;7.00;99.90;;;;;;5054056;28;20413;-78
2022/01/27 13:05:48;;;;;;;11.80;7.47;;;7.00;99.90;;;;;;5053530;28;20466;-78
2022/01/27 13:08:19;;;;;;;13.77;7.20;;;7.10;99.90;;;;;;5053586;28;20416;-78
2022/01/27 13:10:48;;;;;;;13.13;7.90;;;7.10;99.90;;;;;;5053778;28;20418;-78
2022/01/27 13:13:20;;;;;;;12.50;7.77;;;7.10;99.90;;;;;;5053866;28;20480;-78
2022/01/27 13:15:46;;;;;;;12.50;7.63;;;7.10;99.90;;;;;;5053547;28;21055;-78
2022/01/27 13:18:27;;;;;;;11.97;7.50;;;7.10;99.90;;;;;;5053490;28;20956;-77
2022/01/27 13:20:56;;;;;;;11.07;7.90;;;7.20;99.90;;;;;;5053568;28;20414;-77
2022/01/27 13:23:35;;;;;;;11.40;7.00;;;7.20;99.90;;;;;;5053607;28;20413;-78
2022/01/27 13:26:05;;;;;;;9.20;6.30;;;7.30;99.90;;;;;;5053331;28;20509;-78
2022/01/27 13:28:35;;;;;;;12.83;7.83;;;7.30;99.90;;;;;;5053381;28;20406;-78
2022/01/27 13:31:03;;;;;;;11.90;8.07;;;7.30;99.90;;;;;;5035272;28;20414;-78
2022/01/27 13:33:33;;;;;;;11.73;6.90;;;7.30;99.90;;;;;;5053380;28;20439;-78
2022/01/27 13:35:59;;;;;;;9.83;6.53;;;7.30;99.90;;;;;;5053178;28;20776;-78
2022/01/27 13:39:12;;;;;;;12.60;7.00;;;7.30;99.90;;;;;;5053136;28;20464;-77
2022/01/27 13:41:16;;;;;;;8.93;6.37;;;7.40;99.90;;;;;;5042105;28;20234;-78
2022/01/27 13:43:43;;;;;;;9.60;7.37;;;7.40;99.90;;;;;;5053039;28;20491;-78
2022/01/27 13:46:10;;;;;;;9.33;6.63;;;7.40;99.90;;;;;;5052865;28;20430;-77